Time;durP1;ratioP1;P1;durP2;ratioP2;P2;SDS_P1;SDS_P2;PMS_P1;PMS_P2;Temp;Humidity;BMP_temperature;BMP_pressure;BME280_temperature;BME280_humidity;BME280_pressure;Samples;Min_cycle;Max_cycle;Signal;HPM_P1;HPM_P2
2022/04/04 00:00:46;;;;;;;;;;;7.50;64.20;;;;;;4949654;28;82978;-52
2022/04/04 00:03:12;;;;;;;;;;;7.40;64.30;;;;;;4953202;28;82327;-52
2022/04/04 00:05:39;;;;;;;;;;;7.50;64.40;;;;;;4950655;28;81809;-55
2022/04/04 00:08:05;;;;;;;;;;;7.50;64.50;;;;;;4950104;28;83544;-52
2022/04/04 00:10:31;;;;;;;;;;;7.40;64.50;;;;;;4950626;28;81842;-55
2022/04/04 00:12:56;;;;;;;;;;;7.40;64.50;;;;;;4950607;28;81884;-52
2022/04/04 00:15:22;;;;;;;;;;;7.40;64.50;;;;;;4950019;28;83595;-53
2022/04/04 00:17:49;;;;;;;;;;;7.40;64.30;;;;;;4950667;28;81098;-54
2022/04/04 00:20:14;;;;;;;;;;;7.30;64.40;;;;;;4950519;28;81851;-52
2022/04/04 00:22:41;;;;;;;;;;;7.40;64.50;;;;;;4950016;28;83651;-52
2022/04/04 00:25:07;;;;;;;;;;;7.40;64.40;;;;;;4952310;28;82718;-52
2022/04/04 00:27:33;;;;;;;;;;;7.40;64.50;;;;;;4950213;28;82435;-55
2022/04/04 00:29:58;;;;;;;;;;;7.30;64.40;;;;;;4949969;28;81857;-52
2022/04/04 00:32:24;;;;;;;;;;;7.30;64.50;;;;;;4950046;28;82845;-52
2022/04/04 00:34:50;;;;;;;;;;;7.30;64.50;;;;;;4949890;28;83818;-52
2022/04/04 00:37:15;;;;;;;;;;;7.30;64.60;;;;;;4949968;28;81975;-53
2022/04/04 00:39:41;;;;;;;;;;;7.30;64.50;;;;;;4949981;28;82971;-55
2022/04/04 00:42:07;;;;;;;;;;;7.30;64.50;;;;;;4950210;28;82521;-52
2022/04/04 00:44:33;;;;;;;;;;;7.30;64.40;;;;;;4949837;28;81841;-53
2022/04/04 00:46:59;;;;;;;;;;;7.30;64.50;;;;;;4952375;28;83027;-52
2022/04/04 00:49:25;;;;;;;;;;;7.30;64.40;;;;;;4949392;28;82817;-52
2022/04/04 00:51:50;;;;;;;;;;;7.30;64.60;;;;;;4949933;28;83924;-51
2022/04/04 00:54:16;;;;;;;;;;;7.30;64.60;;;;;;4949712;28;83676;-52
2022/04/04 00:56:42;;;;;;;;;;;7.20;64.70;;;;;;4949827;28;81844;-54
2022/04/04 00:59:13;;;;;;;;;;;7.20;64.70;;;;;;4949631;28;82306;-51
2022/04/04 01:01:40;;;;;;;;;;;7.20;64.60;;;;;;4949594;28;82494;-54
2022/04/04 01:04:08;;;;;;;;;;;7.20;64.60;;;;;;4950010;28;81930;-52
2022/04/04 01:06:36;;;;;;;;;;;7.20;64.60;;;;;;4950112;28;82916;-52
2022/04/04 01:09:02;;;;;;;;;;;7.20;64.70;;;;;;4952479;28;82341;-53
2022/04/04 01:11:29;;;;;;;;;;;7.20;64.70;;;;;;4949834;28;81789;-51
2022/04/04 01:13:54;;;;;;;;;;;7.20;64.70;;;;;;4950412;28;83483;-53
2022/04/04 01:16:20;;;;;;;;;;;7.20;64.60;;;;;;4953109;28;81846;-51
2022/04/04 01:18:45;;;;;;;;;;;7.20;64.60;;;;;;4952768;28;82037;-52
2022/04/04 01:21:11;;;;;;;;;;;7.20;64.50;;;;;;4952687;28;83521;-51
2022/04/04 01:23:41;;;;;;;;;;;7.10;64.60;;;;;;4952742;28;81878;-56
2022/04/04 01:26:10;;;;;;;;;;;7.10;64.70;;;;;;4953047;28;81829;-53
2022/04/04 01:28:39;;;;;;;;;;;7.10;64.60;;;;;;4952564;28;83424;-52
2022/04/04 01:31:05;;;;;;;;;;;7.10;64.70;;;;;;4955874;28;81088;-52
2022/04/04 01:33:32;;;;;;;;;;;7.10;64.60;;;;;;4952427;28;83563;-52
2022/04/04 01:35:57;;;;;;;;;;;7.10;64.70;;;;;;4952903;28;82182;-51
2022/04/04 01:38:24;;;;;;;;;;;7.10;64.60;;;;;;4951535;28;82781;-51
2022/04/04 01:40:50;;;;;;;;;;;7.10;64.70;;;;;;4952318;28;82394;-51
2022/04/04 01:43:16;;;;;;;;;;;7.10;64.60;;;;;;4952487;28;81787;-52
2022/04/04 01:48:26;;;;;;;;;;;7.10;64.60;;;;;;4952530;28;81851;-51
2022/04/04 01:50:52;;;;;;;;;;;7.10;64.40;;;;;;4955368;28;81860;-51
2022/04/04 01:53:26;;;;;;;;;;;7.00;64.50;;;;;;4952398;28;82338;-51
2022/04/04 01:55:53;;;;;;;;;;;7.00;64.70;;;;;;4952781;28;81105;-51
2022/04/04 01:58:19;;;;;;;;;;;7.00;64.60;;;;;;4951910;28;81887;-51
2022/04/04 02:00:45;;;;;;;;;;;7.00;64.60;;;;;;4951962;28;83553;-54
2022/04/04 02:03:11;;;;;;;;;;;7.00;64.60;;;;;;4951460;28;82806;-53
2022/04/04 02:05:36;;;;;;;;;;;7.00;64.40;;;;;;4952473;28;83109;-51
2022/04/04 02:08:03;;;;;;;;;;;7.00;64.60;;;;;;4951975;28;83386;-51
2022/04/04 02:10:28;;;;;;;;;;;7.00;64.50;;;;;;4952014;28;82017;-54
2022/04/04 02:12:54;;;;;;;;;;;7.00;64.50;;;;;;4954538;28;82875;-54
2022/04/04 02:15:20;;;;;;;;;;;6.90;64.70;;;;;;4951979;28;81728;-51
2022/04/04 02:17:45;;;;;;;;;;;6.90;64.80;;;;;;4951956;28;82071;-51
2022/04/04 02:20:12;;;;;;;;;;;7.00;64.60;;;;;;4952334;28;82846;-53
2022/04/04 02:22:38;;;;;;;;;;;7.10;64.20;;;;;;4951845;28;81851;-54
2022/04/04 02:25:04;;;;;;;;;;;7.10;64.20;;;;;;4951774;28;83131;-51
2022/04/04 02:27:30;;;;;;;;;;;7.10;64.00;;;;;;4951218;28;83498;-51
2022/04/04 02:29:57;;;;;;;;;;;7.00;64.20;;;;;;4951687;28;81847;-51
2022/04/04 02:32:23;;;;;;;;;;;7.00;64.10;;;;;;4951729;28;82050;-51
2022/04/04 02:34:48;;;;;;;;;;;7.00;64.00;;;;;;4954425;28;82444;-50
2022/04/04 02:37:14;;;;;;;;;;;7.00;63.90;;;;;;4951955;28;81839;-51
2022/04/04 02:39:40;;;;;;;;;;;7.00;64.00;;;;;;4951512;28;83446;-53
2022/04/04 02:42:07;;;;;;;;;;;7.00;64.00;;;;;;4951640;28;81847;-50
2022/04/04 02:44:33;;;;;;;;;;;7.00;64.00;;;;;;4951951;28;82896;-53
2022/04/04 02:46:59;;;;;;;;;;;7.00;63.90;;;;;;4951449;28;81830;-51
2022/04/04 02:49:25;;;;;;;;;;;6.90;64.20;;;;;;4951488;28;81767;-52
2022/04/04 02:51:52;;;;;;;;;;;6.90;64.20;;;;;;4950794;28;83109;-51
2022/04/04 02:54:17;;;;;;;;;;;6.90;64.20;;;;;;4951146;28;82419;-51
2022/04/04 02:56:43;;;;;;;;;;;6.90;64.30;;;;;;4954158;28;81857;-51
2022/04/04 02:59:09;;;;;;;;;;;6.90;64.30;;;;;;4950408;28;83540;-51
2022/04/04 03:01:35;;;;;;;;;;;6.90;64.10;;;;;;4951513;28;81776;-55
2022/04/04 03:04:02;;;;;;;;;;;7.00;64.00;;;;;;4951304;28;82088;-52
2022/04/04 03:06:28;;;;;;;;;;;7.00;64.00;;;;;;4951027;28;83929;-51
2022/04/04 03:08:54;;;;;;;;;;;6.90;64.00;;;;;;4951667;28;81022;-54
2022/04/04 03:11:20;;;;;;;;;;;6.90;64.00;;;;;;4951052;28;81960;-51
2022/04/04 03:13:46;;;;;;;;;;;6.90;64.00;;;;;;4950908;28;82624;-51
2022/04/04 03:16:12;;;;;;;;;;;6.80;64.20;;;;;;4950462;28;82823;-54
2022/04/04 03:18:38;;;;;;;;;;;6.80;64.30;;;;;;4953782;28;81810;-53
2022/04/04 03:21:04;;;;;;;;;;;6.80;64.40;;;;;;4950913;28;82105;-51
2022/04/04 03:23:30;;;;;;;;;;;6.90;64.00;;;;;;4950872;28;83153;-53
2022/04/04 03:25:56;;;;;;;;;;;6.90;64.10;;;;;;4950818;28;82533;-53
2022/04/04 03:28:22;;;;;;;;;;;6.90;64.00;;;;;;4950849;28;81875;-50
2022/04/04 03:30:48;;;;;;;;;;;6.90;64.10;;;;;;4951017;28;81814;-55
2022/04/04 03:33:15;;;;;;;;;;;6.90;64.10;;;;;;4951227;28;82819;-52
2022/04/04 03:35:40;;;;;;;;;;;6.80;64.10;;;;;;4950183;28;82059;-52
2022/04/04 03:38:07;;;;;;;;;;;6.90;64.10;;;;;;4953229;28;82959;-54
2022/04/04 03:40:33;;;;;;;;;;;6.80;64.10;;;;;;4950016;28;82745;-55
2022/04/04 03:43:00;;;;;;;;;;;6.90;63.90;;;;;;4950925;28;82804;-54
2022/04/04 03:45:26;;;;;;;;;;;6.90;63.90;;;;;;4950578;28;82646;-52
2022/04/04 03:47:52;;;;;;;;;;;6.80;63.80;;;;;;4950941;28;81871;-55
2022/04/04 03:50:18;;;;;;;;;;;6.90;64.00;;;;;;4950771;28;81755;-51
2022/04/04 03:52:45;;;;;;;;;;;6.80;63.90;;;;;;4950279;28;83706;-50
2022/04/04 03:55:11;;;;;;;;;;;6.90;63.90;;;;;;4950494;28;81858;-50
2022/04/04 03:57:38;;;;;;;;;;;6.90;63.70;;;;;;4951245;28;82351;-50
2022/04/04 04:00:05;;;;;;;;;;;6.90;63.80;;;;;;4952620;28;83538;-51
2022/04/04 04:02:32;;;;;;;;;;;6.90;63.70;;;;;;4950495;28;83309;-50
2022/04/04 04:04:59;;;;;;;;;;;6.90;63.70;;;;;;4949530;28;83565;-50
2022/04/04 04:07:26;;;;;;;;;;;6.90;63.70;;;;;;4950279;28;81846;-51
2022/04/04 04:09:52;;;;;;;;;;;6.90;63.70;;;;;;4950332;28;82858;-54
2022/04/04 04:12:17;;;;;;;;;;;6.90;63.70;;;;;;4950069;28;83573;-51
2022/04/04 04:14:43;;;;;;;;;;;6.90;63.60;;;;;;4950369;28;81838;-51
2022/04/04 04:17:09;;;;;;;;;;;6.80;63.60;;;;;;4950401;28;83169;-50
2022/04/04 04:22:21;;;;;;;;;;;6.80;63.60;;;;;;4950607;28;81233;-52
2022/04/04 04:24:47;;;;;;;;;;;6.80;63.60;;;;;;4950049;28;82543;-51
2022/04/04 04:27:13;;;;;;;;;;;6.80;63.60;;;;;;4950239;28;81866;-50
2022/04/04 04:29:39;;;;;;;;;;;6.80;63.60;;;;;;4949582;28;82774;-52
2022/04/04 04:32:05;;;;;;;;;;;6.80;63.60;;;;;;4950057;28;82523;-51
2022/04/04 04:34:31;;;;;;;;;;;6.80;63.60;;;;;;4950181;28;82075;-52
2022/04/04 04:36:56;;;;;;;;;;;6.80;63.70;;;;;;4949773;28;81845;-51
2022/04/04 04:39:22;;;;;;;;;;;6.80;63.60;;;;;;4949139;28;82686;-52
2022/04/04 04:41:50;;;;;;;;;;;6.80;63.60;;;;;;4949319;28;82014;-52
2022/04/04 04:44:15;;;;;;;;;;;6.80;63.60;;;;;;4951337;28;82116;-51
2022/04/04 04:46:41;;;;;;;;;;;6.80;63.70;;;;;;4950075;28;81509;-52
2022/04/04 04:49:06;;;;;;;;;;;6.80;63.60;;;;;;4952396;28;82409;-52
2022/04/04 04:51:32;;;;;;;;;;;6.80;63.60;;;;;;4952950;28;83753;-55
2022/04/04 04:53:57;;;;;;;;;;;6.70;64.20;;;;;;4952811;28;82823;-54
2022/04/04 04:56:25;;;;;;;;;;;6.70;63.70;;;;;;4953150;28;82627;-53
2022/04/04 04:58:51;;;;;;;;;;;6.70;63.70;;;;;;4952528;28;82484;-52
2022/04/04 05:01:16;;;;;;;;;;;6.70;63.70;;;;;;4952989;28;81986;-54
2022/04/04 05:03:42;;;;;;;;;;;6.60;63.70;;;;;;4952790;28;82746;-53
2022/04/04 05:06:08;;;;;;;;;;;6.70;63.80;;;;;;4955430;28;81819;-53
2022/04/04 05:08:33;;;;;;;;;;;6.70;63.80;;;;;;4953099;28;81878;-54
2022/04/04 05:11:00;;;;;;;;;;;6.70;63.80;;;;;;4953120;28;81687;-55
2022/04/04 05:13:26;;;;;;;;;;;6.70;63.80;;;;;;4952664;28;81835;-53
2022/04/04 05:15:54;;;;;;;;;;;6.60;63.90;;;;;;4952459;28;82037;-52
2022/04/04 05:18:20;;;;;;;;;;;6.60;63.70;;;;;;4951726;28;84601;-52
2022/04/04 05:20:46;;;;;;;;;;;6.60;63.70;;;;;;4952481;28;81764;-55
2022/04/04 05:23:13;;;;;;;;;;;6.60;63.70;;;;;;4952604;28;82168;-54
2022/04/04 05:25:39;;;;;;;;;;;6.60;63.80;;;;;;4952033;28;82726;-55
2022/04/04 05:28:07;;;;;;;;;;;6.60;63.90;;;;;;4954988;28;81813;-54
2022/04/04 05:30:34;;;;;;;;;;;6.60;63.90;;;;;;4951990;28;82597;-52
2022/04/04 05:32:59;;;;;;;;;;;6.60;63.90;;;;;;4952530;28;81819;-54
2022/04/04 05:35:25;;;;;;;;;;;6.60;63.90;;;;;;4952699;28;81797;-55
2022/04/04 05:37:54;;;;;;;;;;;6.50;64.00;;;;;;4952085;28;83606;-52
2022/04/04 05:40:29;;;;;;;;;;;6.60;64.00;;;;;;4952496;28;81831;-52
2022/04/04 05:42:55;;;;;;;;;;;6.50;64.00;;;;;;4951593;28;82708;-55
2022/04/04 05:45:21;;;;;;;;;;;6.60;64.00;;;;;;4951903;28;82957;-54
2022/04/04 05:47:47;;;;;;;;;;;6.60;64.00;;;;;;4954865;28;81971;-53
2022/04/04 05:50:14;;;;;;;;;;;6.50;64.00;;;;;;4952151;28;81924;-51
2022/04/04 05:52:40;;;;;;;;;;;6.50;64.00;;;;;;4951999;28;81831;-52
2022/04/04 05:55:06;;;;;;;;;;;6.50;64.00;;;;;;4952163;28;81854;-55
2022/04/04 05:57:36;;;;;;;;;;;6.50;64.10;;;;;;4952017;28;81917;-52
2022/04/04 06:00:03;;;;;;;;;;;6.50;64.10;;;;;;4951748;28;81077;-53
2022/04/04 06:02:28;;;;;;;;;;;6.50;64.10;;;;;;4951821;28;82387;-54
2022/04/04 06:04:55;;;;;;;;;;;6.50;64.10;;;;;;4952066;28;81932;-55
2022/04/04 06:07:21;;;;;;;;;;;6.50;64.00;;;;;;4951222;28;82766;-53
2022/04/04 06:09:47;;;;;;;;;;;6.50;64.10;;;;;;4954254;28;84425;-54
2022/04/04 06:12:13;;;;;;;;;;;6.50;63.90;;;;;;4951817;28;81912;-53
2022/04/04 06:14:38;;;;;;;;;;;6.50;64.00;;;;;;4951721;28;82924;-52
2022/04/04 06:17:05;;;;;;;;;;;6.50;64.00;;;;;;4950818;28;81910;-55
2022/04/04 06:19:34;;;;;;;;;;;6.50;64.00;;;;;;4951678;28;81849;-51
2022/04/04 06:22:00;;;;;;;;;;;6.50;64.00;;;;;;4951435;28;82978;-50
2022/04/04 06:24:25;;;;;;;;;;;6.50;64.00;;;;;;4952059;28;81912;-51
2022/04/04 06:26:51;;;;;;;;;;;6.50;64.00;;;;;;4951850;28;81909;-54
2022/04/04 06:29:16;;;;;;;;;;;6.50;63.90;;;;;;4951523;28;82786;-54
2022/04/04 06:31:44;;;;;;;;;;;6.50;64.10;;;;;;4952419;28;83850;-52
2022/04/04 06:34:10;;;;;;;;;;;6.40;64.10;;;;;;4951496;28;83743;-51
2022/04/04 06:36:38;;;;;;;;;;;6.50;64.10;;;;;;4951347;28;82654;-54
2022/04/04 06:39:03;;;;;;;;;;;6.50;64.10;;;;;;4951298;28;81833;-53
2022/04/04 06:41:30;;;;;;;;;;;6.50;64.00;;;;;;4951639;28;82000;-55
2022/04/04 06:43:56;;;;;;;;;;;6.50;64.00;;;;;;4951007;28;83546;-54
2022/04/04 06:46:22;;;;;;;;;;;6.40;64.30;;;;;;4951266;28;81854;-52
2022/04/04 06:48:54;;;;;;;;;;;6.40;64.20;;;;;;4951781;28;82381;-55
2022/04/04 06:51:20;;;;;;;;;;;6.40;64.20;;;;;;4950960;28;83645;-53
2022/04/04 06:53:46;;;;;;;;;;;6.40;64.10;;;;;;4954192;28;81870;-52
2022/04/04 06:56:11;;;;;;;;;;;6.40;64.10;;;;;;4950244;28;84608;-54
2022/04/04 06:58:37;;;;;;;;;;;6.50;64.10;;;;;;4951313;28;81858;-55
2022/04/04 07:01:03;;;;;;;;;;;6.50;64.00;;;;;;4951320;28;82968;-54
2022/04/04 07:03:29;;;;;;;;;;;6.40;64.00;;;;;;4950785;28;82746;-54
2022/04/04 07:05:54;;;;;;;;;;;6.40;64.00;;;;;;4950930;28;81825;-54
2022/04/04 07:08:21;;;;;;;;;;;6.40;64.00;;;;;;4951139;28;82964;-52
2022/04/04 07:10:47;;;;;;;;;;;6.50;63.90;;;;;;4949943;28;82781;-54
2022/04/04 07:13:12;;;;;;;;;;;6.40;63.80;;;;;;4951248;28;81143;-51
2022/04/04 07:15:39;;;;;;;;;;;6.50;63.90;;;;;;4953691;28;81770;-52
2022/04/04 07:18:04;;;;;;;;;;;6.40;63.80;;;;;;4950727;28;81899;-54
2022/04/04 07:20:30;;;;;;;;;;;6.40;64.00;;;;;;4950429;28;83155;-55
2022/04/04 07:22:56;;;;;;;;;;;6.40;64.10;;;;;;4950652;28;83706;-54
2022/04/04 07:25:22;;;;;;;;;;;6.40;64.00;;;;;;4950630;28;81901;-55
2022/04/04 07:27:48;;;;;;;;;;;6.40;64.00;;;;;;4950561;28;82019;-53
2022/04/04 07:30:16;;;;;;;;;;;6.40;64.00;;;;;;4950275;28;84108;-53
2022/04/04 07:32:42;;;;;;;;;;;6.50;64.00;;;;;;4950660;28;81926;-54
2022/04/04 07:35:12;;;;;;;;;;;6.40;63.90;;;;;;4950560;28;83443;-52
2022/04/04 07:37:38;;;;;;;;;;;6.40;64.00;;;;;;4953623;28;82815;-52
2022/04/04 07:40:05;;;;;;;;;;;6.40;64.10;;;;;;5321096;22;83514;-50
2022/04/04 07:42:30;;;;;;;;;;;6.40;64.10;;;;;;4949956;28;83524;-50
2022/04/04 07:44:56;;;;;;;;;;;6.40;64.10;;;;;;4948860;28;82910;-50
2022/04/04 07:47:21;;;;;;;;;;;6.40;64.10;;;;;;4950325;28;84013;-52
2022/04/04 07:49:47;;;;;;;;;;;6.40;64.00;;;;;;4950289;28;82635;-53
2022/04/04 07:52:13;;;;;;;;;;;6.50;64.10;;;;;;4950270;28;82068;-52
2022/04/04 07:54:38;;;;;;;;;;;6.50;64.10;;;;;;4950204;28;81816;-53
2022/04/04 07:57:04;;;;;;;;;;;6.40;64.10;;;;;;4953328;28;82294;-51
2022/04/04 07:59:30;;;;;;;;;;;6.40;64.20;;;;;;4950395;28;82722;-53
2022/04/04 08:01:55;;;;;;;;;;;6.40;64.20;;;;;;4950711;28;82996;-51
2022/04/04 08:04:21;;;;;;;;;;;6.40;64.20;;;;;;4950058;28;82102;-53
2022/04/04 08:06:47;;;;;;;;;;;6.40;64.20;;;;;;4950095;28;82722;-50
2022/04/04 08:09:13;;;;;;;;;;;6.40;64.20;;;;;;4949417;28;82753;-52
2022/04/04 08:11:39;;;;;;;;;;;6.50;64.10;;;;;;4949957;28;81922;-50
2022/04/04 08:14:08;;;;;;;;;;;6.50;64.20;;;;;;4950247;28;82996;-51
2022/04/04 08:16:35;;;;;;;;;;;6.50;64.20;;;;;;4949929;28;82616;-51
2022/04/04 08:19:01;;;;;;;;;;;6.50;64.20;;;;;;4953061;28;81851;-52
2022/04/04 08:21:26;;;;;;;;;;;6.40;64.30;;;;;;4950417;28;83456;-51
2022/04/04 08:23:52;;;;;;;;;;;6.40;64.40;;;;;;4953350;28;81870;-52
2022/04/04 08:26:17;;;;;;;;;;;6.50;64.40;;;;;;4954143;28;81876;-52
2022/04/04 08:28:43;;;;;;;;;;;6.50;64.40;;;;;;4953545;28;81728;-54
2022/04/04 08:31:09;;;;;;;;;;;6.50;64.50;;;;;;4953239;28;81889;-52
2022/04/04 08:33:35;;;;;;;;;;;6.40;64.40;;;;;;4952830;28;82689;-50
2022/04/04 08:36:03;;;;;;;;;;;6.50;64.50;;;;;;4953079;28;83800;-51
2022/04/04 08:38:29;;;;;;;;;;;6.40;64.60;;;;;;4953594;28;81831;-52
2022/04/04 08:40:56;;;;;;;;;;;6.50;64.50;;;;;;4955701;28;81715;-52
2022/04/04 08:43:22;;;;;;;;;;;6.50;64.60;;;;;;4953066;28;81989;-54
2022/04/04 08:45:49;;;;;;;;;;;6.50;64.60;;;;;;4953948;28;82520;-50
2022/04/04 08:48:15;;;;;;;;;;;6.40;64.50;;;;;;4949212;28;88549;-51
2022/04/04 08:50:40;;;;;;;;;;;6.50;64.50;;;;;;4950437;28;86101;-51
2022/04/04 08:53:06;;;;;;;;;;;6.50;64.70;;;;;;4949928;28;87065;-51
2022/04/04 08:55:32;;;;;;;;;;;6.50;64.60;;;;;;4949517;28;87716;-50
2022/04/04 08:57:58;;;;;;;;;;;6.50;64.70;;;;;;4949022;28;88289;-51
2022/04/04 09:00:24;;;;;;;;;;;6.50;64.70;;;;;;4949943;28;87484;-51
2022/04/04 09:03:03;;;;;;;;;;;6.50;64.80;;;;;;5296981;22;88552;-50
2022/04/04 09:05:31;;;;;;;;;;;6.50;64.70;;;;;;4949092;28;87205;-51
2022/04/04 09:08:01;;;;;;;;;;;6.50;64.80;;;;;;4948724;28;88524;-49
2022/04/04 09:10:31;;;;;;;;;;;6.50;64.90;;;;;;4949726;28;86848;-49
2022/04/04 09:13:07;;;;;;;;;;;6.50;64.90;;;;;;4949628;28;87200;-50
2022/04/04 09:15:51;;;;;;;;;;;6.50;65.10;;;;;;4949674;28;87093;-50
2022/04/04 09:18:17;;;;;;;;;;;6.40;65.00;;;;;;4949718;28;86774;-51
2022/04/04 09:20:50;;;;;;;;;;;6.50;65.10;;;;;;4949553;28;88039;-50
2022/04/04 09:23:16;;;;;;;;;;;6.50;65.10;;;;;;4948379;28;89155;-50
2022/04/04 09:25:41;;;;;;;;;;;6.50;65.10;;;;;;4952465;28;87233;-50
2022/04/04 09:28:15;;;;;;;;;;;6.50;65.20;;;;;;4948986;28;88445;-50
2022/04/04 09:30:40;;;;;;;;;;;6.50;65.20;;;;;;4949215;28;86848;-50
2022/04/04 09:33:06;;;;;;;;;;;6.50;65.20;;;;;;4948746;28;87176;-50
2022/04/04 09:35:43;;;;;;;;;;;6.50;65.20;;;;;;4949230;28;87340;-50
2022/04/04 09:38:12;;;;;;;;;;;6.40;65.30;;;;;;4949281;28;86835;-54
2022/04/04 09:40:38;;;;;;;;;;;6.50;65.30;;;;;;4949727;28;88055;-53
2022/04/04 09:43:03;;;;;;;;;;;6.50;65.50;;;;;;4949045;28;87009;-50
2022/04/04 09:45:29;;;;;;;;;;;6.50;65.40;;;;;;4949165;28;87078;-50
2022/04/04 09:47:55;;;;;;;;;;;6.40;65.40;;;;;;4951021;28;88228;-50
2022/04/04 09:50:35;;;;;;;;;;;6.50;65.20;;;;;;4949005;28;87002;-50
2022/04/04 09:53:01;;;;;;;;;;;6.50;65.20;;;;;;4949097;28;87281;-50
2022/04/04 09:55:34;;;;;;;;;;;6.50;65.60;;;;;;4948520;28;88855;-54
2022/04/04 09:58:01;;;;;;;;;;;6.50;65.40;;;;;;4948999;28;86911;-50
2022/04/04 10:00:27;;;;;;;;;;;6.40;65.60;;;;;;4949099;28;86931;-50
2022/04/04 10:02:54;;;;;;;;;;;6.40;65.60;;;;;;4948248;28;87922;-50
2022/04/04 10:05:21;;;;;;;;;;;6.50;65.40;;;;;;4949591;28;86311;-53
2022/04/04 10:07:48;;;;;;;;;;;6.60;65.40;;;;;;4951213;28;87141;-50
2022/04/04 10:10:14;;;;;;;;;;;6.60;65.80;;;;;;4948934;28;86664;-50
2022/04/04 10:12:39;;;;;;;;;;;6.60;65.60;;;;;;4948161;28;87985;-50
2022/04/04 10:15:07;;;;;;;;;;;6.60;65.60;;;;;;4948438;28;87531;-50
2022/04/04 10:17:33;;;;;;;;;;;6.60;65.60;;;;;;4948591;28;86906;-50
2022/04/04 10:19:59;;;;;;;;;;;6.60;66.20;;;;;;4948620;28;88231;-50
2022/04/04 10:22:25;;;;;;;;;;;6.70;65.60;;;;;;4948534;28;86944;-51
2022/04/04 10:24:51;;;;;;;;;;;6.60;65.40;;;;;;4948555;28;86893;-50
2022/04/04 10:27:20;;;;;;;;;;;6.70;65.60;;;;;;4948853;28;86864;-50
2022/04/04 10:29:47;;;;;;;;;;;6.70;65.40;;;;;;4951456;28;87884;-50
2022/04/04 10:32:24;;;;;;;;;;;6.70;65.50;;;;;;4948591;28;86854;-50
2022/04/04 10:34:51;;;;;;;;;;;6.80;65.50;;;;;;4947962;28;87744;-51
2022/04/04 10:37:19;;;;;;;;;;;6.80;65.30;;;;;;4947725;28;87828;-51
2022/04/04 10:39:48;;;;;;;;;;;6.90;65.50;;;;;;4948257;28;88844;-51
2022/04/04 10:42:26;;;;;;;;;;;6.80;66.10;;;;;;4947868;28;88568;-52
2022/04/04 10:44:59;;;;;;;;;;;6.80;65.40;;;;;;4948221;28;87052;-51
2022/04/04 10:47:26;;;;;;;;;;;6.80;65.80;;;;;;4948574;28;87063;-51
2022/04/04 10:49:54;;;;;;;;;;;6.80;65.70;;;;;;4947767;28;88250;-51
2022/04/04 10:52:36;;;;;;;;;;;6.80;65.90;;;;;;4951230;28;87079;-51
2022/04/04 10:55:22;;;;;;;;;;;6.80;65.50;;;;;;4948284;28;87741;-51
2022/04/04 10:57:47;;;;;;;;;;;6.90;65.80;;;;;;4947994;28;86876;-51
2022/04/04 11:00:16;;;;;;;;;;;6.90;65.60;;;;;;4948088;28;87854;-51
2022/04/04 11:02:43;;;;;;;;;;;6.90;66.00;;;;;;4945932;28;88610;-50
2022/04/04 11:08:05;;;;;;;;;;;6.90;65.60;;;;;;4948350;28;86835;-50
2022/04/04 11:10:42;;;;;;;;;;;6.90;66.00;;;;;;4947375;28;87995;-50
2022/04/04 11:13:08;;;;;;;;;;;6.90;65.90;;;;;;4947897;28;86868;-50
2022/04/04 11:15:42;;;;;;;;;;;6.90;66.10;;;;;;4950369;28;88085;-50
2022/04/04 11:18:08;;;;;;;;;;;7.00;66.00;;;;;;4947773;28;86825;-51
2022/04/04 11:20:34;;;;;;;;;;;7.00;66.10;;;;;;4948250;28;87199;-50
2022/04/04 11:23:08;;;;;;;;;;;7.00;65.60;;;;;;4947269;28;88969;-51
2022/04/04 11:25:34;;;;;;;;;;;7.00;65.90;;;;;;4947664;28;86921;-51
2022/04/04 11:28:10;;;;;;;;;;;7.00;65.90;;;;;;4947029;28;87995;-51
2022/04/04 11:30:36;;;;;;;;;;;7.00;65.80;;;;;;4947121;28;88628;-52
2022/04/04 11:33:02;;;;;;;;;;;7.00;65.90;;;;;;4947467;28;87081;-52
2022/04/04 11:35:30;;;;;;;;;;;7.00;66.10;;;;;;4947417;28;87989;-53
2022/04/04 11:37:56;;;;;;;;;;;7.10;66.10;;;;;;4950059;28;87610;-51
2022/04/04 11:40:29;;;;;;;;;;;7.00;66.00;;;;;;4947519;28;87244;-51
2022/04/04 11:42:56;;;;;;;;;;;7.10;66.20;;;;;;4947024;28;87551;-51
2022/04/04 11:45:22;;;;;;;;;;;7.10;66.20;;;;;;4947923;28;86363;-50
2022/04/04 11:48:01;;;;;;;;;;;7.10;66.20;;;;;;4947362;28;86847;-51
2022/04/04 11:50:28;;;;;;;;;;;7.10;66.10;;;;;;4946846;28;88509;-54
2022/04/04 11:52:55;;;;;;;;;;;7.20;66.20;;;;;;4946653;28;88102;-51
2022/04/04 11:55:22;;;;;;;;;;;7.10;66.30;;;;;;4946951;28;87929;-51
2022/04/04 11:57:49;;;;;;;;;;;7.20;66.30;;;;;;4946213;28;88609;-52
2022/04/04 12:00:22;;;;;;;;;;;7.10;66.30;;;;;;4950044;28;86809;-51
2022/04/04 12:02:47;;;;;;;;;;;7.10;66.40;;;;;;4946741;28;87444;-51
2022/04/04 12:05:14;;;;;;;;;;;7.20;66.40;;;;;;4947398;28;87053;-51
2022/04/04 12:07:41;;;;;;;;;;;7.20;66.40;;;;;;4947074;28;87093;-52
2022/04/04 12:10:07;;;;;;;;;;;7.20;66.20;;;;;;4947226;28;87792;-51
2022/04/04 12:12:33;;;;;;;;;;;7.20;66.40;;;;;;4946525;28;87141;-55
2022/04/04 12:14:59;;;;;;;;;;;7.30;66.20;;;;;;4947355;28;87193;-52
2022/04/04 12:17:24;;;;;;;;;;;7.20;66.30;;;;;;4945821;28;89375;-55
2022/04/04 12:19:52;;;;;;;;;;;7.30;66.50;;;;;;4950058;28;86947;-55
2022/04/04 12:25:05;;;;;;;;;;;7.20;66.50;;;;;;4943754;28;86917;-55
2022/04/04 12:27:31;;;;;;;;;;;7.30;66.50;;;;;;4945835;28;88002;-55
2022/04/04 12:29:58;;;;;;;;;;;7.30;66.60;;;;;;4946404;28;87910;-55
2022/04/04 12:32:24;;;;;;;;;;;7.30;66.50;;;;;;4946559;28;86901;-55
2022/04/04 12:34:56;;;;;;;;;;;7.30;66.60;;;;;;4946937;28;88340;-53
2022/04/04 12:37:41;;;;;;;;;;;7.30;66.50;;;;;;4946345;28;87634;-55
2022/04/04 12:40:16;;;;;;;;;;;7.40;66.50;;;;;;4946726;28;86888;-53
2022/04/04 12:42:42;;;;;;;;;;;7.40;66.60;;;;;;4948282;28;87834;-56
2022/04/04 12:45:08;;;;;;;;;;;7.40;66.60;;;;;;4946742;28;87252;-55
2022/04/04 12:47:34;;;;;;;;;;;7.30;66.60;;;;;;4946529;28;88357;-55
2022/04/04 12:50:12;;;;;;;;;;;7.40;66.80;;;;;;4945916;28;88700;-52
2022/04/04 12:52:57;;;;;;;;;;;7.40;66.70;;;;;;4946561;28;86871;-54
2022/04/04 12:55:23;;;;;;;;;;;7.40;66.70;;;;;;4946331;28;87904;-55
2022/04/04 12:57:49;;;;;;;;;;;7.40;66.80;;;;;;4945888;28;87916;-55
2022/04/04 13:00:27;;;;;;;;;;;7.40;66.90;;;;;;4946746;28;86033;-55
2022/04/04 13:02:53;;;;;;;;;;;7.40;66.90;;;;;;4946347;28;86826;-53
2022/04/04 13:05:18;;;;;;;;;;;7.40;66.80;;;;;;4948825;28;86874;-53
2022/04/04 13:07:48;;;;;;;;;;;7.40;66.80;;;;;;4945842;28;88170;-53
2022/04/04 13:10:14;;;;;;;;;;;7.40;66.90;;;;;;4948760;28;87735;-54
2022/04/04 13:12:41;;;;;;;;;;;7.40;66.90;;;;;;4949300;28;86831;-53
2022/04/04 13:15:08;;;;;;;;;;;7.40;66.80;;;;;;4949686;28;87140;-56
2022/04/04 13:17:35;;;;;;;;;;;7.50;67.30;;;;;;4949079;28;88504;-55
2022/04/04 13:20:01;;;;;;;;;;;7.50;66.70;;;;;;4949163;28;86853;-54
2022/04/04 13:22:26;;;;;;;;;;;7.50;66.80;;;;;;4949444;28;86900;-51
2022/04/04 13:24:52;;;;;;;;;;;7.50;66.80;;;;;;4949466;28;87707;-54
2022/04/04 13:27:21;;;;;;;;;;;7.50;66.80;;;;;;4951947;28;86938;-54
2022/04/04 13:29:47;;;;;;;;;;;7.50;66.80;;;;;;4948893;28;87602;-55
2022/04/04 13:32:13;;;;;;;;;;;7.50;66.70;;;;;;4948245;28;87740;-55
2022/04/04 13:34:41;;;;;;;;;;;7.50;66.70;;;;;;4949177;28;88001;-54
2022/04/04 13:37:07;;;;;;;;;;;7.50;66.70;;;;;;4948712;28;88952;-55
2022/04/04 13:39:32;;;;;;;;;;;7.60;66.80;;;;;;4949174;28;86819;-54
2022/04/04 13:41:59;;;;;;;;;;;7.50;66.80;;;;;;4949145;28;87759;-53
2022/04/04 13:44:25;;;;;;;;;;;7.50;66.80;;;;;;4948726;28;87594;-55
2022/04/04 13:46:50;;;;;;;;;;;7.50;66.80;;;;;;4948890;28;86983;-56
2022/04/04 13:49:16;;;;;;;;;;;7.50;66.80;;;;;;4951995;28;88025;-55
2022/04/04 13:51:42;;;;;;;;;;;7.60;66.80;;;;;;4948664;28;86998;-56
2022/04/04 13:54:07;;;;;;;;;;;7.60;66.80;;;;;;4948734;28;88097;-53
2022/04/04 13:56:35;;;;;;;;;;;7.60;66.70;;;;;;4947728;28;89356;-56
2022/04/04 13:59:01;;;;;;;;;;;7.60;66.80;;;;;;4948870;28;86941;-51
2022/04/04 14:01:27;;;;;;;;;;;7.60;66.70;;;;;;4948695;28;87929;-55
2022/04/04 14:03:53;;;;;;;;;;;7.60;66.70;;;;;;4947922;28;87702;-55
2022/04/04 14:06:19;;;;;;;;;;;7.60;66.70;;;;;;4948757;28;86873;-54
2022/04/04 14:08:45;;;;;;;;;;;7.60;66.80;;;;;;4951115;28;87844;-55
2022/04/04 14:11:11;;;;;;;;;;;7.60;66.70;;;;;;4948512;28;86797;-52
2022/04/04 14:13:38;;;;;;;;;;;7.60;66.70;;;;;;4948912;28;87894;-54
2022/04/04 14:16:04;;;;;;;;;;;7.70;66.80;;;;;;4948213;28;87384;-53
2022/04/04 14:18:30;;;;;;;;;;;7.60;66.80;;;;;;4948894;28;86855;-54
2022/04/04 14:20:56;;;;;;;;;;;7.70;66.90;;;;;;4947496;28;87782;-51
2022/04/04 14:23:22;;;;;;;;;;;7.70;66.90;;;;;;4948264;28;87833;-55
2022/04/04 14:25:48;;;;;;;;;;;7.70;66.90;;;;;;4948772;28;86890;-55
2022/04/04 14:28:14;;;;;;;;;;;7.70;66.80;;;;;;4948700;28;87193;-51
2022/04/04 14:30:40;;;;;;;;;;;7.60;66.80;;;;;;4951171;28;87639;-51
2022/04/04 14:33:07;;;;;;;;;;;7.70;66.80;;;;;;4948391;28;87017;-54
2022/04/04 14:35:32;;;;;;;;;;;7.70;66.80;;;;;;4947739;28;87512;-55
2022/04/04 14:37:58;;;;;;;;;;;7.70;66.80;;;;;;4948775;28;86331;-55
2022/04/04 14:40:25;;;;;;;;;;;7.70;66.80;;;;;;4948165;28;87264;-54